createdAt,value
2022-12-03T00:00:13.962Z,15.30
2022-12-03T00:03:02.267Z,15.30
2022-12-03T00:05:50.483Z,15.30
2022-12-03T00:08:39.822Z,15.40
2022-12-03T00:11:27.865Z,15.40
2022-12-03T00:14:15.994Z,15.40
2022-12-03T00:17:04.019Z,15.30
2022-12-03T00:19:52.112Z,15.30
2022-12-03T00:22:40.148Z,15.20
2022-12-03T00:25:29.522Z,15.10
2022-12-03T00:28:17.561Z,15.00
2022-12-03T00:31:05.800Z,15.00
2022-12-03T00:33:53.925Z,14.90
2022-12-03T00:36:42.071Z,14.90
2022-12-03T00:39:30.086Z,14.80
2022-12-03T00:42:19.568Z,14.80
2022-12-03T00:45:08.460Z,14.60
2022-12-03T00:47:56.729Z,14.60
2022-12-03T00:50:44.805Z,14.60
2022-12-03T00:53:32.887Z,14.50
2022-12-03T00:56:20.953Z,14.40
2022-12-03T00:59:10.453Z,14.40
2022-12-03T01:01:58.583Z,14.30
2022-12-03T01:04:46.781Z,14.30
2022-12-03T01:07:34.939Z,14.20
2022-12-03T01:10:23.209Z,14.20
2022-12-03T01:13:11.389Z,14.10
2022-12-03T01:16:00.824Z,14.10
2022-12-03T01:18:48.950Z,14.00
2022-12-03T01:21:37.613Z,14.00
2022-12-03T01:24:25.666Z,14.00
2022-12-03T01:27:13.705Z,14.00
2022-12-03T01:30:01.719Z,14.00
2022-12-03T01:32:50.182Z,13.90
2022-12-03T01:35:38.201Z,13.90
2022-12-03T01:38:26.293Z,13.90
2022-12-03T01:41:14.335Z,13.80
2022-12-03T01:44:03.174Z,13.80
2022-12-03T01:46:52.845Z,13.80
2022-12-03T01:49:44.686Z,13.80
2022-12-03T01:52:36.630Z,13.80
2022-12-03T01:55:26.296Z,13.80
2022-12-03T01:58:15.797Z,13.70
2022-12-03T02:01:11.029Z,13.70
2022-12-03T02:03:59.208Z,13.70
2022-12-03T02:06:48.709Z,13.70
2022-12-03T02:09:36.699Z,13.70
2022-12-03T02:12:29.634Z,13.70
2022-12-03T02:15:17.715Z,13.60
2022-12-03T02:18:06.328Z,13.60
2022-12-03T02:21:03.854Z,13.70
2022-12-03T02:24:03.478Z,13.70
2022-12-03T02:26:52.975Z,13.60
2022-12-03T02:29:41.051Z,13.80
2022-12-03T02:32:29.252Z,13.60
2022-12-03T02:35:19.852Z,13.50
2022-12-03T02:38:12.917Z,13.60
2022-12-03T02:41:05.557Z,13.60
2022-12-03T02:43:54.006Z,13.60
2022-12-03T02:46:42.337Z,13.60
2022-12-03T02:49:30.436Z,13.70
2022-12-03T02:52:18.621Z,13.60
2022-12-03T02:55:08.888Z,13.70
2022-12-03T02:57:57.096Z,13.70
2022-12-03T03:00:47.585Z,13.70
2022-12-03T03:03:37.613Z,13.70
2022-12-03T03:06:25.876Z,13.70
2022-12-03T03:09:14.046Z,13.70
2022-12-03T03:12:02.390Z,13.80
2022-12-03T03:14:50.742Z,13.80
2022-12-03T03:17:42.403Z,13.70
2022-12-03T03:20:30.600Z,13.80
2022-12-03T03:23:21.306Z,13.70
2022-12-03T03:26:10.980Z,13.70
2022-12-03T03:29:00.269Z,13.70
2022-12-03T03:31:48.964Z,13.70
2022-12-03T03:34:38.398Z,13.70
2022-12-03T03:37:27.545Z,13.70
2022-12-03T03:40:15.689Z,13.70
2022-12-03T03:43:04.099Z,13.70
2022-12-03T03:45:53.320Z,13.70
2022-12-03T03:48:42.493Z,13.70
2022-12-03T03:51:32.522Z,13.60
2022-12-03T03:54:20.673Z,13.60
2022-12-03T03:57:08.844Z,13.60
2022-12-03T03:59:59.370Z,13.60
2022-12-03T04:02:47.788Z,13.60
2022-12-03T04:05:35.797Z,13.60
2022-12-03T04:08:25.183Z,13.70
2022-12-03T04:11:30.678Z,13.80
2022-12-03T04:14:18.692Z,13.90
2022-12-03T04:17:06.712Z,13.90
2022-12-03T04:19:54.853Z,13.90
2022-12-03T04:22:41.938Z,14.00
2022-12-03T04:25:48.943Z,14.00
2022-12-03T04:28:52.112Z,14.00
2022-12-03T04:31:58.050Z,14.00
2022-12-03T04:35:03.987Z,14.10
2022-12-03T04:37:52.056Z,14.00
2022-12-03T04:40:58.944Z,14.00
2022-12-03T04:44:00.939Z,14.00
2022-12-03T04:46:48.960Z,14.00
2022-12-03T04:49:39.065Z,14.00
2022-12-03T04:52:27.074Z,13.90
2022-12-03T04:55:15.258Z,13.90
2022-12-03T04:58:04.712Z,13.90
2022-12-03T05:00:52.955Z,13.80
2022-12-03T05:03:41.038Z,13.80
2022-12-03T05:06:29.073Z,13.80
2022-12-03T05:09:17.523Z,13.80
2022-12-03T05:12:06.212Z,13.80
2022-12-03T05:14:55.918Z,13.70
2022-12-03T05:17:44.159Z,13.70
2022-12-03T05:20:51.340Z,13.70
2022-12-03T05:23:41.516Z,13.70
2022-12-03T05:26:29.566Z,13.60
2022-12-03T05:29:17.560Z,13.60
2022-12-03T05:32:07.146Z,13.60
2022-12-03T05:34:55.570Z,13.70
2022-12-03T05:37:43.816Z,13.70
2022-12-03T05:40:31.836Z,13.70
2022-12-03T05:43:18.993Z,13.70
2022-12-03T05:46:07.247Z,13.70
2022-12-03T05:48:56.647Z,13.70
2022-12-03T05:51:44.716Z,13.70
2022-12-03T05:54:32.807Z,13.60
2022-12-03T05:57:20.803Z,13.70
2022-12-03T06:00:12.730Z,13.70
2022-12-03T06:03:00.960Z,13.70
2022-12-03T06:05:50.938Z,13.70
2022-12-03T06:08:38.990Z,13.70
2022-12-03T06:11:27.020Z,13.70
2022-12-03T06:14:15.047Z,13.70
2022-12-03T06:17:04.723Z,13.70
2022-12-03T06:19:53.031Z,13.70
2022-12-03T06:22:42.440Z,13.70
2022-12-03T06:25:30.461Z,13.60
2022-12-03T06:28:18.512Z,13.60
2022-12-03T06:31:06.868Z,13.30
2022-12-03T06:33:54.967Z,13.60
2022-12-03T06:36:43.010Z,13.60
2022-12-03T06:39:32.375Z,13.60
2022-12-03T06:42:20.451Z,13.60
2022-12-03T06:45:09.422Z,13.50
2022-12-03T06:47:57.462Z,13.50
2022-12-03T06:50:45.485Z,13.60
2022-12-03T06:53:33.520Z,13.80
2022-12-03T06:56:23.049Z,14.00
2022-12-03T06:59:11.095Z,14.20
2022-12-03T07:01:59.194Z,14.30
2022-12-03T07:04:47.690Z,14.40
2022-12-03T07:07:35.764Z,14.50
2022-12-03T07:10:23.839Z,14.50
2022-12-03T07:13:13.219Z,14.60
2022-12-03T07:16:01.275Z,14.60
2022-12-03T07:18:49.340Z,14.60
2022-12-03T07:21:37.406Z,14.60
2022-12-03T07:24:25.429Z,14.50
2022-12-03T07:27:13.445Z,14.50
2022-12-03T07:30:02.936Z,14.50
2022-12-03T07:32:51.236Z,14.50
2022-12-03T07:35:39.280Z,14.50
2022-12-03T07:38:27.291Z,14.40
2022-12-03T07:41:15.351Z,14.40
2022-12-03T07:44:05.589Z,14.40
2022-12-03T07:46:58.844Z,14.30
2022-12-03T07:49:46.964Z,14.30
2022-12-03T07:52:35.001Z,14.20
2022-12-03T07:55:24.669Z,14.20
2022-12-03T07:58:12.744Z,14.10
2022-12-03T08:01:00.877Z,12.60
2022-12-03T08:03:50.402Z,14.00
2022-12-03T08:06:38.639Z,14.00
2022-12-03T08:09:26.755Z,14.00
2022-12-03T08:12:17.995Z,14.00
2022-12-03T08:15:10.795Z,13.90
2022-12-03T08:18:01.071Z,13.90
2022-12-03T08:20:51.743Z,13.90
2022-12-03T08:23:39.847Z,13.80
2022-12-03T08:26:29.461Z,13.80
2022-12-03T08:29:19.673Z,13.80
2022-12-03T08:32:11.337Z,13.80
2022-12-03T08:35:01.483Z,13.80
2022-12-03T08:37:56.759Z,13.70
2022-12-03T08:40:47.915Z,13.70
2022-12-03T08:43:41.986Z,13.80
2022-12-03T08:46:30.299Z,13.80
2022-12-03T08:49:20.572Z,13.80
2022-12-03T08:52:15.947Z,13.80
2022-12-03T08:55:33.431Z,13.80
2022-12-03T08:58:25.380Z,13.80
2022-12-03T09:01:40.361Z,13.90
2022-12-03T09:04:31.997Z,13.80
2022-12-03T09:07:20.135Z,13.80
2022-12-03T09:10:09.471Z,13.80
2022-12-03T09:12:57.564Z,13.80
2022-12-03T09:15:46.914Z,13.80
2022-12-03T09:18:35.090Z,13.80
2022-12-03T09:21:23.189Z,13.80
2022-12-03T09:24:11.272Z,13.80
2022-12-03T09:26:59.309Z,13.80
2022-12-03T09:29:47.326Z,13.80
2022-12-03T09:32:36.757Z,13.70
2022-12-03T09:35:26.013Z,13.70
2022-12-03T09:38:14.113Z,13.70
2022-12-03T09:41:02.223Z,13.70
2022-12-03T09:44:04.017Z,13.70
2022-12-03T09:46:53.180Z,13.80
2022-12-03T09:49:43.300Z,13.70
2022-12-03T09:52:33.971Z,13.70
2022-12-03T09:55:24.865Z,13.70
2022-12-03T09:58:15.003Z,13.70
2022-12-03T10:01:03.276Z,13.70
2022-12-03T10:03:52.586Z,13.70
2022-12-03T10:06:45.816Z,13.70
2022-12-03T10:09:34.432Z,13.70
2022-12-03T10:12:25.119Z,13.80
2022-12-03T10:15:14.802Z,13.80
2022-12-03T10:18:16.707Z,13.70
2022-12-03T10:21:04.867Z,13.70
2022-12-03T10:24:22.938Z,13.70
2022-12-03T10:27:23.191Z,13.70
2022-12-03T10:30:19.518Z,13.70
2022-12-03T10:33:18.636Z,13.70
2022-12-03T10:36:20.350Z,13.70
2022-12-03T10:39:12.323Z,13.60
2022-12-03T10:42:15.768Z,13.60
2022-12-03T10:45:19.390Z,13.60
2022-12-03T10:48:13.079Z,13.60
2022-12-03T10:51:04.757Z,13.60
2022-12-03T10:53:54.255Z,13.60
2022-12-03T10:56:42.406Z,13.60
2022-12-03T10:59:35.172Z,13.60
2022-12-03T11:02:25.228Z,13.60
2022-12-03T11:05:16.165Z,13.60
2022-12-03T11:08:05.390Z,13.60
2022-12-03T11:10:58.729Z,13.60
2022-12-03T11:13:53.473Z,13.60
2022-12-03T11:17:10.086Z,13.70
2022-12-03T11:19:59.174Z,13.70
2022-12-03T11:22:48.452Z,13.80
2022-12-03T11:25:57.456Z,13.80
2022-12-03T11:28:55.967Z,13.80
2022-12-03T11:31:46.566Z,13.80
2022-12-03T11:34:45.311Z,13.90
2022-12-03T11:37:33.370Z,13.90
2022-12-03T11:40:34.775Z,13.90
2022-12-03T11:43:59.277Z,13.90
2022-12-03T11:46:48.532Z,13.90
2022-12-03T11:49:47.869Z,13.90
2022-12-03T11:52:43.230Z,13.90
2022-12-03T11:55:34.329Z,13.90
2022-12-03T11:58:26.477Z,13.80
2022-12-03T12:01:15.965Z,13.80
2022-12-03T12:04:04.588Z,13.80
2022-12-03T12:06:54.047Z,13.80
2022-12-03T12:09:56.007Z,13.80
2022-12-03T12:12:54.345Z,13.80
2022-12-03T12:15:44.893Z,13.80
2022-12-03T12:18:41.771Z,13.80
2022-12-03T12:21:44.630Z,13.70
2022-12-03T12:24:38.267Z,13.70
2022-12-03T12:27:32.698Z,13.70
2022-12-03T12:30:23.212Z,13.70
2022-12-03T12:33:23.173Z,13.70
2022-12-03T12:36:11.977Z,13.70
2022-12-03T12:39:01.047Z,13.70
2022-12-03T12:41:52.333Z,13.80
2022-12-03T12:44:40.399Z,13.80
2022-12-03T12:47:31.068Z,13.90
2022-12-03T12:50:20.391Z,13.90
2022-12-03T12:53:13.593Z,13.90
2022-12-03T12:56:08.159Z,14.00
2022-12-03T12:58:59.605Z,14.00
2022-12-03T13:01:49.603Z,14.00
2022-12-03T13:04:40.181Z,14.00
2022-12-03T13:07:28.424Z,14.00
2022-12-03T13:10:36.680Z,14.00
2022-12-03T13:13:32.073Z,14.00
2022-12-03T13:16:27.353Z,14.00
2022-12-03T13:19:23.506Z,13.90
2022-12-03T13:22:15.663Z,13.90
2022-12-03T13:25:58.163Z,13.90
2022-12-03T13:28:42.665Z,13.80
2022-12-03T13:31:41.852Z,13.80
2022-12-03T13:34:33.915Z,13.80
2022-12-03T13:37:24.434Z,13.80
2022-12-03T13:40:23.939Z,13.80
2022-12-03T13:43:15.745Z,13.80
2022-12-03T13:46:03.884Z,13.50
2022-12-03T13:48:56.349Z,13.80
2022-12-03T13:51:49.313Z,13.80
2022-12-03T13:54:39.732Z,13.70
2022-12-03T13:57:27.897Z,13.70
2022-12-03T14:00:16.458Z,13.70
2022-12-03T14:03:05.072Z,13.70
2022-12-03T14:05:54.494Z,13.70
2022-12-03T14:08:42.617Z,13.80
2022-12-03T14:11:48.404Z,14.00
2022-12-03T14:14:36.555Z,14.10
2022-12-03T14:17:24.689Z,14.20
2022-12-03T14:20:13.633Z,14.30
2022-12-03T14:23:03.090Z,14.30
2022-12-03T14:25:51.142Z,14.30
2022-12-03T14:28:39.309Z,14.30
2022-12-03T14:31:27.453Z,14.30
2022-12-03T14:34:15.652Z,14.30
2022-12-03T14:37:03.814Z,14.30
2022-12-03T14:39:53.519Z,14.30
2022-12-03T14:42:41.871Z,14.30
2022-12-03T14:45:30.624Z,14.20
2022-12-03T14:48:18.801Z,14.20
2022-12-03T14:51:07.156Z,14.20
2022-12-03T14:53:55.285Z,14.20
2022-12-03T14:59:33.216Z,14.10
2022-12-03T15:02:21.432Z,14.10
2022-12-03T15:05:09.792Z,14.00
2022-12-03T15:07:58.140Z,14.00
2022-12-03T15:10:46.345Z,14.00
2022-12-03T15:13:35.834Z,13.90
2022-12-03T15:16:24.548Z,13.90
2022-12-03T15:19:12.742Z,13.90
2022-12-03T15:22:00.809Z,13.80
2022-12-03T15:24:48.917Z,13.80
2022-12-03T15:27:37.076Z,13.80
2022-12-03T15:30:26.667Z,13.80
2022-12-03T15:33:15.133Z,13.80
2022-12-03T15:36:03.179Z,13.70
2022-12-03T15:38:51.217Z,13.70
2022-12-03T15:41:39.224Z,13.80
2022-12-03T15:44:27.249Z,13.80
2022-12-03T15:47:16.677Z,13.80
2022-12-03T15:50:05.449Z,13.80
2022-12-03T15:52:53.490Z,13.80
2022-12-03T15:55:41.500Z,13.80
2022-12-03T15:58:29.867Z,13.80
2022-12-03T16:01:18.299Z,13.70
2022-12-03T16:04:08.051Z,13.70
2022-12-03T16:06:56.077Z,13.70
2022-12-03T16:09:44.086Z,13.70
2022-12-03T16:12:32.098Z,13.60
2022-12-03T16:15:26.446Z,13.60
2022-12-03T16:18:15.153Z,13.60
2022-12-03T16:21:24.976Z,13.60
2022-12-03T16:24:14.695Z,13.60
2022-12-03T16:27:02.960Z,13.60
2022-12-03T16:29:51.162Z,13.60
2022-12-03T16:32:39.239Z,13.60
2022-12-03T16:35:27.283Z,13.60
2022-12-03T16:38:16.622Z,13.60
2022-12-03T16:41:04.695Z,13.60
2022-12-03T16:43:52.892Z,13.60
2022-12-03T16:46:40.987Z,13.60
2022-12-03T16:49:29.104Z,13.60
2022-12-03T16:52:17.507Z,13.60
2022-12-03T16:55:08.183Z,13.60
2022-12-03T16:57:56.305Z,13.60
2022-12-03T17:00:44.311Z,13.70
2022-12-03T17:03:34.255Z,13.70
2022-12-03T17:06:22.410Z,13.70
2022-12-03T17:09:10.463Z,13.80
2022-12-03T17:11:59.800Z,13.80
2022-12-03T17:14:47.850Z,13.80
2022-12-03T17:17:35.906Z,13.90
2022-12-03T17:20:24.014Z,13.90
2022-12-03T17:23:12.567Z,13.90
2022-12-03T17:26:00.628Z,13.90
2022-12-03T17:28:49.979Z,13.90
2022-12-03T17:31:41.850Z,13.80
2022-12-03T17:34:30.698Z,13.80
2022-12-03T17:37:18.746Z,13.80
2022-12-03T17:40:08.936Z,13.80
2022-12-03T17:42:56.960Z,13.80
2022-12-03T17:45:46.288Z,13.80
2022-12-03T17:48:34.567Z,13.70
2022-12-03T17:51:24.377Z,13.70
2022-12-03T17:54:12.442Z,13.70
2022-12-03T17:57:00.511Z,13.70
2022-12-03T17:59:48.517Z,13.70
2022-12-03T18:02:37.861Z,13.70
2022-12-03T18:05:26.770Z,13.60
2022-12-03T18:08:14.856Z,13.60
2022-12-03T18:11:03.014Z,13.70
2022-12-03T18:13:51.102Z,13.60
2022-12-03T18:16:39.246Z,13.70
2022-12-03T18:19:28.666Z,13.80
2022-12-03T18:22:17.184Z,13.80
2022-12-03T18:25:06.222Z,13.90
2022-12-03T18:27:54.276Z,13.90
2022-12-03T18:30:45.031Z,14.00
2022-12-03T18:33:35.683Z,14.00
2022-12-03T18:36:29.775Z,14.00
2022-12-03T18:39:24.627Z,14.00
2022-12-03T18:42:16.775Z,14.00
2022-12-03T18:45:08.247Z,14.10
2022-12-03T18:47:56.330Z,14.00
2022-12-03T18:50:45.296Z,14.10
2022-12-03T18:53:34.633Z,14.00
2022-12-03T18:56:22.666Z,14.00
2022-12-03T18:59:11.226Z,14.00
2022-12-03T19:01:59.411Z,13.90
2022-12-03T19:04:47.550Z,13.90
2022-12-03T19:07:35.756Z,13.90
2022-12-03T19:10:26.237Z,13.90
2022-12-03T19:13:14.269Z,13.80
2022-12-03T19:16:03.759Z,13.80
2022-12-03T19:18:53.088Z,13.80
2022-12-03T19:21:41.121Z,13.80
2022-12-03T19:24:30.547Z,13.80
2022-12-03T19:27:19.969Z,13.80
2022-12-03T19:30:09.316Z,13.70
2022-12-03T19:32:57.356Z,13.70
2022-12-03T19:35:45.366Z,13.70
2022-12-03T19:38:34.204Z,13.70
2022-12-03T19:41:22.632Z,13.70
2022-12-03T19:44:14.378Z,13.80
2022-12-03T19:47:02.621Z,13.80
2022-12-03T19:49:50.636Z,13.80
2022-12-03T19:52:38.657Z,13.80
2022-12-03T19:55:26.678Z,13.80
2022-12-03T19:58:15.807Z,13.80
2022-12-03T20:01:09.292Z,13.80
2022-12-03T20:04:00.299Z,13.80
2022-12-03T20:06:48.294Z,13.80
2022-12-03T20:09:36.378Z,13.80
2022-12-03T20:12:24.457Z,13.80
2022-12-03T20:15:13.668Z,13.80
2022-12-03T20:18:03.046Z,13.80
2022-12-03T20:20:51.301Z,13.80
2022-12-03T20:23:39.622Z,13.80
2022-12-03T20:26:28.006Z,13.80
2022-12-03T20:29:16.011Z,13.80
2022-12-03T20:32:04.879Z,13.70
2022-12-03T20:34:54.355Z,13.70
2022-12-03T20:37:42.370Z,13.70
2022-12-03T20:40:30.394Z,13.70
2022-12-03T20:43:18.646Z,13.70
2022-12-03T20:46:11.313Z,13.70
2022-12-03T20:49:00.019Z,13.70
2022-12-03T20:51:50.894Z,13.70
2022-12-03T20:54:38.912Z,13.70
2022-12-03T20:57:26.952Z,13.70
2022-12-03T21:00:15.566Z,13.70
2022-12-03T21:03:03.672Z,13.70
2022-12-03T21:05:59.005Z,13.80
2022-12-03T21:08:48.783Z,13.90
2022-12-03T21:11:40.136Z,13.90
2022-12-03T21:14:28.276Z,13.90
2022-12-03T21:17:16.414Z,14.00
2022-12-03T21:20:05.052Z,14.00
2022-12-03T21:22:53.067Z,14.00
2022-12-03T21:25:42.455Z,14.00
2022-12-03T21:28:30.520Z,14.00
2022-12-03T21:31:20.686Z,14.00
2022-12-03T21:34:09.159Z,14.00
2022-12-03T21:36:57.145Z,14.00
2022-12-03T21:39:45.240Z,14.00
2022-12-03T21:42:37.220Z,14.00
2022-12-03T21:45:26.247Z,14.00
2022-12-03T21:48:14.860Z,14.00
2022-12-03T21:51:04.704Z,13.90
2022-12-03T21:53:52.728Z,13.90
2022-12-03T21:56:40.915Z,13.90
2022-12-03T21:59:30.293Z,13.80
2022-12-03T22:02:18.410Z,13.80
2022-12-03T22:05:08.165Z,13.80
2022-12-03T22:07:56.313Z,13.80
2022-12-03T22:10:44.665Z,13.80
2022-12-03T22:13:32.766Z,13.70
2022-12-03T22:16:22.677Z,13.70
2022-12-03T22:19:10.829Z,13.70
2022-12-03T22:21:59.009Z,13.70
2022-12-03T22:24:47.373Z,13.70
2022-12-03T22:27:35.431Z,13.70
2022-12-03T22:30:23.514Z,13.70
2022-12-03T22:33:12.905Z,13.80
2022-12-03T22:36:02.943Z,13.80
2022-12-03T22:38:51.774Z,13.80
2022-12-03T22:41:40.191Z,13.90
2022-12-03T22:44:28.256Z,13.90
2022-12-03T22:47:16.275Z,13.90
2022-12-03T22:50:06.641Z,14.00
2022-12-03T22:52:54.712Z,13.90
2022-12-03T22:55:43.028Z,14.00
2022-12-03T22:58:31.616Z,14.00
2022-12-03T23:01:24.359Z,14.00
2022-12-03T23:04:13.054Z,14.00
2022-12-03T23:07:02.488Z,14.00
2022-12-03T23:09:50.854Z,14.00
2022-12-03T23:12:39.252Z,13.90
2022-12-03T23:15:27.317Z,13.90
2022-12-03T23:18:15.532Z,13.90
2022-12-03T23:21:03.583Z,13.90
2022-12-03T23:23:52.938Z,13.80
2022-12-03T23:26:40.971Z,13.80
2022-12-03T23:29:29.012Z,13.80
2022-12-03T23:32:17.023Z,13.80
2022-12-03T23:35:05.724Z,13.80
2022-12-03T23:37:53.765Z,13.80
2022-12-03T23:40:47.850Z,13.70
2022-12-03T23:43:36.380Z,13.70
2022-12-03T23:46:29.239Z,13.80
2022-12-03T23:49:17.297Z,13.80
2022-12-03T23:52:05.385Z,14.00
2022-12-03T23:54:53.411Z,14.10
2022-12-03T23:57:42.792Z,14.30
